Time;durP1;ratioP1;P1;durP2;ratioP2;P2;SDS_P1;SDS_P2;PMS_P1;PMS_P2;Temp;Humidity;BMP_temperature;BMP_pressure;BME280_temperature;BME280_humidity;BME280_pressure;Samples;Min_cycle;Max_cycle;Signal;HPM_P1;HPM_P2
2022/12/09 00:00:07;;;;;;;399.27;22.27;;;-1.70;99.90;;;;;;6183621;23;20008;-82
2022/12/09 00:02:33;;;;;;;517.63;27.40;;;-2.00;99.90;;;;;;6159208;23;20055;-84
2022/12/09 00:04:58;;;;;;;381.33;22.05;;;-2.00;99.90;;;;;;6187403;23;20009;-82
2022/12/09 00:07:24;;;;;;;322.50;20.23;;;-2.00;99.90;;;;;;6184914;23;20474;-81
2022/12/09 00:09:49;;;;;;;340.63;20.02;;;-1.90;99.90;;;;;;6135499;23;20440;-83
2022/12/09 00:12:15;;;;;;;452.35;24.10;;;-1.70;99.90;;;;;;6185522;23;20050;-81
2022/12/09 00:14:41;;;;;;;440.48;20.83;;;-1.70;99.90;;;;;;6185122;23;20262;-80
2022/12/09 00:17:07;;;;;;;569.20;26.52;;;-1.80;99.90;;;;;;6161422;23;20051;-84
2022/12/09 00:19:33;;;;;;;398.88;20.80;;;-1.70;99.90;;;;;;6188274;23;20075;-82
2022/12/09 00:21:59;;;;;;;450.58;23.10;;;-1.80;99.90;;;;;;6163586;23;20020;-80
2022/12/09 00:24:25;;;;;;;383.55;19.27;;;-1.90;99.90;;;;;;6160010;23;20106;-79
2022/12/09 00:26:50;;;;;;;400.05;21.10;;;-2.00;99.90;;;;;;6159212;23;20013;-81
2022/12/09 00:29:16;;;;;;;364.98;18.98;;;-2.10;99.90;;;;;;6184572;23;20019;-80
2022/12/09 00:31:42;;;;;;;256.38;16.48;;;-2.00;99.90;;;;;;6168002;23;20013;-80
2022/12/09 00:34:10;;;;;;;277.67;17.17;;;-2.10;99.90;;;;;;6168263;23;20055;-84
2022/12/09 00:36:36;;;;;;;166.60;17.08;;;-2.10;99.90;;;;;;6193032;23;20332;-83
2022/12/09 00:39:02;;;;;;;212.98;18.60;;;-1.90;99.90;;;;;;6167840;23;20123;-81
2022/12/09 00:41:28;;;;;;;222.60;19.52;;;-1.70;99.90;;;;;;6171674;23;20016;-79
2022/12/09 00:43:55;;;;;;;62.97;15.30;;;-1.80;99.90;;;;;;6211803;23;20032;-79
2022/12/09 00:46:20;;;;;;;67.35;15.63;;;-2.00;99.90;;;;;;6209851;23;20013;-83
2022/12/09 00:48:46;;;;;;;72.07;15.90;;;-2.00;99.90;;;;;;6189107;23;20031;-79
2022/12/09 00:51:15;;;;;;;27.88;14.05;;;-1.80;99.90;;;;;;6167221;23;20036;-79
2022/12/09 00:53:41;;;;;;;23.05;12.50;;;-2.20;99.90;;;;;;6148574;23;20044;-80
2022/12/09 00:56:07;;;;;;;24.23;13.05;;;-1.90;99.90;;;;;;6202370;23;20017;-80
2022/12/09 00:58:33;;;;;;;23.20;12.70;;;-2.30;99.90;;;;;;6210009;23;20107;-80
2022/12/09 01:00:59;;;;;;;24.88;12.82;;;-2.00;99.90;;;;;;6213057;23;20017;-78
2022/12/09 01:03:25;;;;;;;21.35;11.95;;;-2.00;99.90;;;;;;6178761;23;20017;-80
2022/12/09 01:05:51;;;;;;;28.13;13.15;;;-2.30;99.90;;;;;;6158870;23;20101;-81
2022/12/09 01:08:16;;;;;;;24.75;13.77;;;-2.20;99.90;;;;;;6135343;23;20017;-83
2022/12/09 01:10:43;;;;;;;26.92;14.00;;;-2.40;99.90;;;;;;6183893;23;20020;-80
2022/12/09 01:13:10;;;;;;;31.08;14.57;;;-2.50;99.90;;;;;;6159837;23;20076;-83
2022/12/09 01:15:37;;;;;;;31.45;14.57;;;-2.50;99.90;;;;;;6185851;23;20015;-83
2022/12/09 01:18:04;;;;;;;31.75;15.35;;;-2.20;99.90;;;;;;6159819;23;20044;-84
2022/12/09 01:20:30;;;;;;;37.83;17.02;;;-2.40;99.90;;;;;;6159591;23;20066;-81
2022/12/09 01:22:55;;;;;;;37.58;17.17;;;-2.20;99.90;;;;;;6185320;23;20005;-82
2022/12/09 01:25:21;;;;;;;35.35;15.85;;;-2.40;99.90;;;;;;6158583;23;20583;-82
2022/12/09 01:27:47;;;;;;;36.50;16.50;;;-2.10;99.90;;;;;;6184246;23;20012;-83
2022/12/09 01:30:13;;;;;;;35.58;16.85;;;-2.30;99.90;;;;;;6185070;23;20015;-82
2022/12/09 01:32:41;;;;;;;39.00;18.05;;;-2.20;99.90;;;;;;6161805;23;20090;-82
2022/12/09 01:35:07;;;;;;;39.67;17.45;;;-2.00;99.90;;;;;;6183857;23;20055;-83
2022/12/09 01:37:35;;;;;;;41.95;18.25;;;-1.90;99.90;;;;;;6158179;23;20574;-82
2022/12/09 01:40:03;;;;;;;46.15;18.98;;;-2.00;99.90;;;;;;6158629;23;20036;-81
2022/12/09 01:42:29;;;;;;;39.22;18.35;;;-2.00;99.90;;;;;;6197766;23;20021;-84
2022/12/09 01:45:20;;;;;;;38.95;17.92;;;-1.90;99.90;;;;;;6186689;23;20027;-79
2022/12/09 01:47:54;;;;;;;44.22;18.75;;;-2.10;99.90;;;;;;6187367;23;20469;-83
2022/12/09 01:50:20;;;;;;;45.97;18.90;;;-2.20;99.90;;;;;;6212005;23;20020;-82
2022/12/09 01:52:48;;;;;;;47.13;18.40;;;-2.10;99.90;;;;;;6206889;23;20009;-82
2022/12/09 01:55:35;;;;;;;47.92;18.58;;;-2.10;99.90;;;;;;6209935;23;20025;-82
2022/12/09 01:58:04;;;;;;;42.17;18.27;;;-2.20;99.90;;;;;;6186452;23;20088;-81
2022/12/09 02:00:29;;;;;;;41.60;17.33;;;-2.30;99.90;;;;;;6183896;23;20067;-85
2022/12/09 02:02:55;;;;;;;40.00;17.20;;;-2.30;99.90;;;;;;6183665;23;20424;-82
2022/12/09 02:05:23;;;;;;;44.40;18.83;;;-2.20;99.90;;;;;;6183016;23;20013;-82
2022/12/09 02:07:49;;;;;;;41.55;17.77;;;-2.10;99.90;;;;;;6209245;23;20103;-80
2022/12/09 02:10:16;;;;;;;42.72;17.10;;;-2.30;99.90;;;;;;6207143;23;20103;-83
2022/12/09 02:12:59;;;;;;;46.83;18.52;;;-2.00;99.90;;;;;;6183809;23;20057;-81
2022/12/09 02:16:00;;;;;;;37.38;17.23;;;-2.30;99.90;;;;;;6185362;23;20435;-81
2022/12/09 02:18:46;;;;;;;34.00;16.38;;;-2.30;99.90;;;;;;6069378;23;20121;-81
2022/12/09 02:21:18;;;;;;;37.17;15.73;;;-2.30;99.90;;;;;;6093773;23;20033;-80
2022/12/09 02:23:58;;;;;;;37.03;16.02;;;-2.60;99.90;;;;;;6053009;23;20146;-80
2022/12/09 02:27:01;;;;;;;38.75;16.05;;;-2.20;99.90;;;;;;6102905;23;20038;-80
2022/12/09 02:29:51;;;;;;;37.03;16.58;;;-2.50;99.90;;;;;;6067049;23;20316;-80
2022/12/09 02:32:37;;;;;;;41.72;16.55;;;-2.60;99.90;;;;;;6066689;23;20055;-82
2022/12/09 02:35:39;;;;;;;33.88;15.43;;;-2.60;99.90;;;;;;6089242;23;20029;-82
2022/12/09 02:38:32;;;;;;;40.53;16.17;;;-2.40;99.90;;;;;;6042467;23;20049;-81
2022/12/09 02:41:15;;;;;;;35.00;15.70;;;-2.50;99.90;;;;;;6060581;23;20054;-82
2022/12/09 02:43:48;;;;;;;39.03;16.50;;;-2.70;99.90;;;;;;6025499;23;20089;-79
2022/12/09 02:46:15;;;;;;;42.15;17.15;;;-2.50;99.90;;;;;;6063439;23;20083;-78
2022/12/09 02:48:45;;;;;;;46.75;17.17;;;-2.60;99.90;;;;;;6043645;23;20015;-79
2022/12/09 02:51:16;;;;;;;46.33;16.98;;;-2.30;99.90;;;;;;6038343;23;20011;-79
2022/12/09 02:53:45;;;;;;;42.97;17.77;;;-2.30;99.90;;;;;;6086707;23;20019;-82
2022/12/09 02:56:31;;;;;;;41.42;17.15;;;-2.30;99.90;;;;;;6183755;23;20344;-83
2022/12/09 02:58:56;;;;;;;43.40;17.50;;;-2.30;99.90;;;;;;6184304;23;20016;-81
2022/12/09 03:01:33;;;;;;;38.85;16.02;;;-2.30;99.90;;;;;;6185925;23;20067;-81
2022/12/09 03:04:00;;;;;;;40.50;16.50;;;-2.30;99.90;;;;;;6160978;23;20048;-84
2022/12/09 03:06:33;;;;;;;41.97;16.35;;;-2.60;99.90;;;;;;6165756;23;20068;-80
2022/12/09 03:09:12;;;;;;;44.10;17.58;;;-2.40;99.90;;;;;;6190568;23;20043;-81
2022/12/09 03:11:59;;;;;;;41.15;16.50;;;-2.30;99.90;;;;;;6162245;23;20013;-82
2022/12/09 03:14:29;;;;;;;40.42;15.88;;;-2.60;99.90;;;;;;6207926;23;20020;-83
2022/12/09 03:17:02;;;;;;;48.22;15.90;;;-2.50;99.90;;;;;;6099270;23;20093;-85
2022/12/09 03:19:33;;;;;;;39.85;16.77;;;-2.40;99.90;;;;;;6098952;23;20028;-82
2022/12/09 03:22:08;;;;;;;45.53;17.55;;;-2.60;99.90;;;;;;6120389;23;20050;-82
2022/12/09 03:24:45;;;;;;;43.05;17.17;;;-2.60;99.90;;;;;;6096050;23;20155;-83
2022/12/09 03:27:18;;;;;;;47.47;17.25;;;-2.50;99.90;;;;;;6070394;23;20014;-85
2022/12/09 03:29:48;;;;;;;43.30;17.60;;;-2.70;99.90;;;;;;6092694;23;20092;-85
2022/12/09 03:32:15;;;;;;;49.05;17.85;;;-2.30;99.90;;;;;;6092870;23;20728;-81
2022/12/09 03:34:45;;;;;;;45.92;17.30;;;-2.60;99.90;;;;;;6120256;23;20018;-84
2022/12/09 03:37:15;;;;;;;45.55;17.42;;;-2.60;99.90;;;;;;6070598;23;20061;-82
2022/12/09 03:39:43;;;;;;;46.67;17.45;;;-2.50;99.90;;;;;;6116415;23;20013;-84
2022/12/09 03:42:17;;;;;;;56.42;17.75;;;-2.50;99.90;;;;;;6104012;23;20025;-84
2022/12/09 03:44:50;;;;;;;48.83;17.45;;;-2.30;99.90;;;;;;6068988;23;20169;-82
2022/12/09 03:47:16;;;;;;;53.67;18.17;;;-2.50;99.90;;;;;;6091440;23;20456;-85
2022/12/09 03:49:42;;;;;;;49.33;17.83;;;-2.50;99.90;;;;;;6184008;23;20024;-83
2022/12/09 03:52:19;;;;;;;52.90;18.17;;;-2.20;99.90;;;;;;6178308;23;20255;-84
2022/12/09 03:54:48;;;;;;;55.63;18.38;;;-2.50;99.90;;;;;;6188029;23;20016;-80
2022/12/09 03:57:16;;;;;;;45.67;17.85;;;-2.10;99.90;;;;;;6170790;23;20040;-80
2022/12/09 03:59:51;;;;;;;50.58;17.75;;;-2.20;99.90;;;;;;6200459;23;20024;-79
2022/12/09 04:02:17;;;;;;;47.78;19.05;;;-2.40;99.90;;;;;;6167533;23;20012;-83
2022/12/09 04:04:42;;;;;;;51.70;17.85;;;-2.50;99.90;;;;;;6187667;23;20016;-82
2022/12/09 04:07:09;;;;;;;47.80;18.00;;;-2.30;99.90;;;;;;6188087;23;20012;-79
2022/12/09 04:09:34;;;;;;;45.38;17.73;;;-2.60;99.90;;;;;;6163539;23;20060;-79
2022/12/09 04:12:00;;;;;;;45.20;17.00;;;-2.20;99.90;;;;;;6189244;23;20020;-84
2022/12/09 04:14:25;;;;;;;48.10;16.92;;;-2.30;99.90;;;;;;6194605;23;20016;-81
2022/12/09 04:16:51;;;;;;;41.28;17.00;;;-2.30;99.90;;;;;;6190563;23;20055;-83
2022/12/09 04:19:17;;;;;;;40.90;16.88;;;-2.40;99.90;;;;;;6188470;23;20017;-82
2022/12/09 04:21:43;;;;;;;42.45;17.60;;;-2.70;99.90;;;;;;6194981;23;20044;-78
2022/12/09 04:24:08;;;;;;;47.60;17.98;;;-2.50;99.90;;;;;;6185759;23;20020;-83
2022/12/09 04:26:35;;;;;;;47.72;18.17;;;-2.60;99.90;;;;;;6184655;23;20008;-83
2022/12/09 04:29:00;;;;;;;49.17;18.90;;;-2.40;99.90;;;;;;6184707;23;20318;-82
2022/12/09 04:31:26;;;;;;;42.85;17.98;;;-2.50;99.90;;;;;;6183716;23;20020;-83
2022/12/09 04:33:52;;;;;;;45.28;17.70;;;-2.40;99.90;;;;;;6184937;23;20092;-80
2022/12/09 04:36:19;;;;;;;46.05;17.35;;;-2.50;99.90;;;;;;6160812;23;20013;-85
2022/12/09 04:38:46;;;;;;;50.05;18.48;;;-2.50;99.90;;;;;;6183445;23;20012;-83
2022/12/09 04:41:13;;;;;;;47.28;17.85;;;-2.60;99.90;;;;;;6187052;23;20012;-84
2022/12/09 04:43:39;;;;;;;43.45;18.40;;;-2.40;99.90;;;;;;6192426;23;20099;-81
2022/12/09 04:46:09;;;;;;;42.05;17.65;;;-2.40;99.90;;;;;;6193316;23;20436;-79
2022/12/09 04:48:34;;;;;;;45.15;18.17;;;-2.80;99.90;;;;;;6193499;23;20012;-82
2022/12/09 04:51:02;;;;;;;51.00;19.02;;;-2.50;99.90;;;;;;6217030;23;20019;-81
2022/12/09 04:53:27;;;;;;;49.17;19.02;;;-2.50;99.90;;;;;;6215776;23;20008;-80
2022/12/09 04:56:37;;;;;;;52.95;18.83;;;-2.80;99.90;;;;;;6215745;23;20095;-82
2022/12/09 04:59:03;;;;;;;56.00;19.23;;;-2.50;99.90;;;;;;6246805;23;20031;-82
2022/12/09 05:01:29;;;;;;;47.45;19.10;;;-2.80;99.90;;;;;;6215983;23;20012;-81
2022/12/09 05:03:54;;;;;;;45.60;18.17;;;-2.50;99.90;;;;;;6192176;23;20693;-82
2022/12/09 05:06:21;;;;;;;45.50;18.88;;;-2.60;99.90;;;;;;6216842;23;20016;-84
2022/12/09 05:08:48;;;;;;;45.15;18.30;;;-2.90;99.90;;;;;;6191231;23;20008;-79
2022/12/09 05:11:15;;;;;;;45.35;18.20;;;-2.80;99.90;;;;;;6191682;23;20057;-82
2022/12/09 05:13:40;;;;;;;46.33;18.08;;;-2.60;99.90;;;;;;6218559;23;20012;-86
2022/12/09 05:16:12;;;;;;;50.30;19.38;;;-2.90;99.90;;;;;;6192958;23;20019;-80
2022/12/09 05:18:37;;;;;;;51.00;19.02;;;-2.90;99.90;;;;;;6200951;22;20094;-82
2022/12/09 05:21:05;;;;;;;48.30;19.15;;;-2.90;99.90;;;;;;6224079;23;20012;-84
2022/12/09 05:23:30;;;;;;;48.53;19.00;;;-3.00;99.90;;;;;;6192293;23;20016;-82
2022/12/09 05:26:34;;;;;;;43.35;17.40;;;-2.90;99.90;;;;;;6220925;23;20031;-81
2022/12/09 05:29:00;;;;;;;47.22;18.60;;;-3.10;99.90;;;;;;6202122;23;20012;-80
2022/12/09 05:31:26;;;;;;;52.42;19.75;;;-3.10;99.90;;;;;;6196648;23;20111;-79
2022/12/09 05:33:52;;;;;;;54.53;19.38;;;-2.90;99.90;;;;;;6232097;23;20352;-78
2022/12/09 05:36:20;;;;;;;58.40;20.65;;;-2.80;99.90;;;;;;6230504;23;20078;-79
2022/12/09 05:38:46;;;;;;;52.33;20.27;;;-3.00;99.90;;;;;;6215357;23;20405;-81
2022/12/09 05:41:12;;;;;;;55.08;20.45;;;-3.00;99.90;;;;;;6213746;23;20195;-81
2022/12/09 05:43:39;;;;;;;58.20;20.80;;;-2.80;99.90;;;;;;6189335;23;20039;-84
2022/12/09 05:46:05;;;;;;;51.47;19.30;;;-3.00;99.90;;;;;;6189946;23;20016;-81
2022/12/09 05:48:31;;;;;;;67.78;21.90;;;-2.90;99.90;;;;;;6188397;23;20031;-80
2022/12/09 05:51:06;;;;;;;56.50;21.05;;;-2.90;99.90;;;;;;6192656;23;20031;-82
2022/12/09 05:53:33;;;;;;;60.22;20.95;;;-2.90;99.90;;;;;;6214457;23;20768;-82
2022/12/09 05:56:22;;;;;;;59.47;21.67;;;-2.90;99.90;;;;;;6189396;23;20047;-78
2022/12/09 05:58:49;;;;;;;55.35;20.63;;;-2.50;99.90;;;;;;6215463;23;20443;-84
2022/12/09 06:01:15;;;;;;;60.58;20.70;;;-2.80;99.90;;;;;;6188542;23;20055;-81
2022/12/09 06:03:46;;;;;;;51.35;20.20;;;-2.80;99.90;;;;;;6190045;23;20012;-83
2022/12/09 06:06:14;;;;;;;55.50;20.10;;;-2.80;99.90;;;;;;6214788;23;20031;-85
2022/12/09 06:08:42;;;;;;;54.08;20.52;;;-2.60;99.90;;;;;;6217184;23;20083;-84
2022/12/09 06:11:16;;;;;;;61.78;20.25;;;-2.60;99.90;;;;;;6219807;23;20016;-82
2022/12/09 06:13:42;;;;;;;55.08;19.27;;;-2.80;99.90;;;;;;6217777;23;20324;-79
2022/12/09 06:16:09;;;;;;;52.75;19.65;;;-2.80;99.90;;;;;;6216137;23;20154;-84
2022/12/09 06:18:36;;;;;;;48.85;19.65;;;-2.90;99.90;;;;;;6218578;22;20428;-80
2022/12/09 06:21:09;;;;;;;43.40;18.42;;;-3.00;99.90;;;;;;6192866;23;20070;-81
2022/12/09 06:23:36;;;;;;;45.63;18.50;;;-2.80;99.90;;;;;;6216567;23;20016;-82
2022/12/09 06:26:04;;;;;;;51.38;19.48;;;-2.70;99.90;;;;;;6187263;23;20096;-82
2022/12/09 06:28:30;;;;;;;46.05;18.73;;;-2.70;99.90;;;;;;6214509;23;20084;-82
2022/12/09 06:30:57;;;;;;;45.63;18.35;;;-3.20;99.90;;;;;;6187645;23;20012;-84
2022/12/09 06:33:23;;;;;;;46.78;18.48;;;-3.20;99.90;;;;;;6189139;23;20095;-84
2022/12/09 06:35:49;;;;;;;45.40;17.85;;;-3.10;99.90;;;;;;6215388;23;20724;-78
2022/12/09 06:38:15;;;;;;;48.75;19.20;;;-3.20;99.90;;;;;;6214119;23;20094;-82
2022/12/09 06:40:44;;;;;;;52.20;19.48;;;-3.20;99.90;;;;;;6162022;23;20020;-81
2022/12/09 06:43:10;;;;;;;49.72;19.05;;;-3.10;99.90;;;;;;6186449;23;20035;-81
2022/12/09 06:45:36;;;;;;;45.40;18.27;;;-3.20;99.90;;;;;;6184284;23;20039;-80
2022/12/09 06:48:03;;;;;;;47.92;18.70;;;-2.90;99.90;;;;;;6186173;23;20015;-81
2022/12/09 06:50:29;;;;;;;43.22;18.15;;;-2.90;99.90;;;;;;6158821;23;20089;-86
2022/12/09 06:52:55;;;;;;;50.83;19.13;;;-3.20;99.90;;;;;;6183701;23;20020;-84
2022/12/09 06:55:20;;;;;;;49.28;18.60;;;-3.20;99.90;;;;;;6183665;23;20429;-80
2022/12/09 06:57:46;;;;;;;52.72;19.60;;;-3.00;99.90;;;;;;6186068;23;20020;-84
2022/12/09 07:00:15;;;;;;;46.95;18.83;;;-2.80;99.90;;;;;;6188637;23;20661;-85
2022/12/09 07:02:40;;;;;;;49.00;18.92;;;-3.20;99.90;;;;;;6137771;23;20515;-80
2022/12/09 07:05:06;;;;;;;48.83;19.20;;;-3.20;99.90;;;;;;6189222;23;20044;-83
2022/12/09 07:07:33;;;;;;;48.70;18.27;;;-3.10;99.90;;;;;;6189134;23;20021;-81
2022/12/09 07:10:04;;;;;;;49.38;18.90;;;-3.00;99.90;;;;;;6165292;23;20070;-79
2022/12/09 07:12:30;;;;;;;54.58;19.45;;;-3.20;99.90;;;;;;6190219;23;20025;-78
2022/12/09 07:14:56;;;;;;;47.35;17.98;;;-2.90;99.90;;;;;;6218442;23;20108;-81
2022/12/09 07:17:21;;;;;;;53.53;19.17;;;-2.90;99.90;;;;;;6161615;23;20036;-83
2022/12/09 07:19:47;;;;;;;60.13;20.58;;;-3.20;99.90;;;;;;6212007;23;20020;-81
2022/12/09 07:22:13;;;;;;;47.55;19.45;;;-3.20;99.90;;;;;;6184795;23;20047;-81
2022/12/09 07:24:39;;;;;;;59.60;20.02;;;-2.90;99.90;;;;;;6182036;23;20020;-82
2022/12/09 07:27:23;;;;;;;53.42;20.33;;;-3.10;99.90;;;;;;6156248;23;20749;-84
2022/12/09 07:29:49;;;;;;;57.50;20.23;;;-3.00;99.90;;;;;;6160163;23;20020;-80
2022/12/09 07:32:15;;;;;;;59.80;21.30;;;-2.70;99.90;;;;;;6158110;23;20309;-83
2022/12/09 07:34:41;;;;;;;50.72;20.63;;;-3.00;99.90;;;;;;6161197;23;20021;-82
2022/12/09 07:37:06;;;;;;;60.92;20.65;;;-2.60;99.90;;;;;;6159301;23;20138;-83
2022/12/09 07:39:32;;;;;;;61.35;21.30;;;-3.00;99.90;;;;;;6184272;23;20048;-83
2022/12/09 07:41:58;;;;;;;58.65;20.88;;;-2.70;99.90;;;;;;6183165;23;20051;-82
2022/12/09 07:44:28;;;;;;;61.70;21.23;;;-3.00;99.90;;;;;;6158276;23;20416;-81
2022/12/09 07:46:54;;;;;;;61.55;21.08;;;-2.60;99.90;;;;;;6186420;23;20329;-82
2022/12/09 07:49:19;;;;;;;60.22;21.63;;;-2.60;99.90;;;;;;6168071;23;20013;-86
2022/12/09 07:51:45;;;;;;;55.22;20.88;;;-2.70;99.90;;;;;;6161107;23;20064;-81
2022/12/09 07:54:13;;;;;;;55.90;20.73;;;-2.90;99.90;;;;;;6185192;23;20486;-80
2022/12/09 07:56:38;;;;;;;57.60;21.17;;;-3.00;99.90;;;;;;6157053;23;20024;-81
2022/12/09 07:59:06;;;;;;;55.58;20.83;;;-2.70;99.90;;;;;;6159436;23;20380;-79
2022/12/09 08:01:32;;;;;;;53.53;21.35;;;-2.60;99.90;;;;;;6162074;23;20009;-79
2022/12/09 08:03:58;;;;;;;56.53;20.88;;;-2.90;99.90;;;;;;6134711;23;20092;-82
2022/12/09 08:06:27;;;;;;;63.60;23.35;;;-2.70;99.90;;;;;;6160565;23;20353;-83
2022/12/09 08:08:53;;;;;;;61.20;22.23;;;-2.60;99.90;;;;;;6158718;23;20016;-78
2022/12/09 08:11:25;;;;;;;63.75;22.98;;;-2.60;99.90;;;;;;6157934;23;20460;-81
2022/12/09 08:13:51;;;;;;;73.05;24.90;;;-2.80;99.90;;;;;;6183983;23;20024;-82
2022/12/09 08:16:19;;;;;;;69.40;23.63;;;-2.40;99.90;;;;;;6157747;23;20012;-82
2022/12/09 08:18:46;;;;;;;77.40;25.35;;;-2.70;99.90;;;;;;6183128;23;20088;-80
2022/12/09 08:21:15;;;;;;;79.78;25.90;;;-2.30;99.90;;;;;;6210753;23;20038;-81
2022/12/09 08:23:41;;;;;;;81.25;26.70;;;-2.60;99.90;;;;;;6185323;23;20071;-79
2022/12/09 08:26:08;;;;;;;84.85;27.35;;;-2.20;99.90;;;;;;6184538;23;20036;-78
2022/12/09 08:28:34;;;;;;;88.38;28.92;;;-2.20;99.90;;;;;;6184182;23;20023;-79
2022/12/09 08:31:09;;;;;;;93.38;29.15;;;-1.90;99.90;;;;;;6186558;23;20092;-81
2022/12/09 08:33:35;;;;;;;93.93;29.15;;;-1.80;99.90;;;;;;6189261;23;20012;-79
2022/12/09 08:36:03;;;;;;;104.78;30.77;;;-1.90;99.90;;;;;;6190139;23;20020;-79
2022/12/09 08:38:30;;;;;;;108.07;32.22;;;-1.90;99.90;;;;;;6170818;23;20028;-79
2022/12/09 08:40:57;;;;;;;102.25;32.22;;;-1.80;99.90;;;;;;6168571;23;20019;-81
2022/12/09 08:43:22;;;;;;;109.38;32.15;;;-1.70;99.90;;;;;;6210891;23;20032;-80
2022/12/09 08:45:48;;;;;;;89.25;29.80;;;-1.60;99.90;;;;;;6186114;23;20325;-81
2022/12/09 08:48:14;;;;;;;87.18;27.80;;;-1.70;99.90;;;;;;6185115;23;20020;-84
2022/12/09 08:50:39;;;;;;;83.10;29.55;;;-1.50;99.90;;;;;;6212395;23;20008;-82
2022/12/09 08:53:05;;;;;;;80.07;27.95;;;-1.50;99.90;;;;;;6212097;23;20031;-81
2022/12/09 08:55:31;;;;;;;96.05;29.02;;;-1.50;99.90;;;;;;6212218;23;20052;-82
2022/12/09 08:57:57;;;;;;;83.80;28.75;;;-1.30;99.90;;;;;;6186356;23;20073;-77
2022/12/09 09:00:22;;;;;;;90.47;29.38;;;-1.20;99.90;;;;;;6210923;23;20099;-81
2022/12/09 09:02:48;;;;;;;89.15;30.23;;;-1.50;99.90;;;;;;6210924;23;20390;-80
2022/12/09 09:05:14;;;;;;;86.20;29.73;;;-1.30;99.90;;;;;;6210767;23;20027;-80
2022/12/09 09:07:40;;;;;;;102.38;29.77;;;-1.00;99.90;;;;;;6161483;23;20019;-84
2022/12/09 09:10:06;;;;;;;94.00;29.90;;;-1.20;99.90;;;;;;6209697;23;20337;-81
2022/12/09 09:12:32;;;;;;;90.40;29.95;;;-1.10;99.90;;;;;;6213626;23;20016;-82
2022/12/09 09:14:58;;;;;;;92.72;30.48;;;-0.80;99.90;;;;;;6188343;23;20092;-82
2022/12/09 09:17:24;;;;;;;104.38;32.40;;;-0.80;99.90;;;;;;6186929;23;20044;-84
2022/12/09 09:19:49;;;;;;;105.82;33.83;;;-0.80;99.90;;;;;;6211276;23;20024;-82
2022/12/09 09:22:15;;;;;;;136.95;35.83;;;-0.50;99.90;;;;;;6187199;23;20037;-82
2022/12/09 09:24:41;;;;;;;147.52;38.97;;;-0.70;99.90;;;;;;6208246;23;20091;-84
2022/12/09 09:27:07;;;;;;;126.43;37.05;;;-0.60;99.90;;;;;;6183345;23;20020;-82
2022/12/09 09:29:33;;;;;;;149.77;37.35;;;-0.20;99.90;;;;;;6208971;23;20021;-81
2022/12/09 09:31:59;;;;;;;242.30;41.92;;;-0.50;99.90;;;;;;6210884;23;20044;-81
2022/12/09 09:34:26;;;;;;;208.60;39.92;;;-0.10;99.90;;;;;;6208493;23;20325;-85
2022/12/09 09:36:51;;;;;;;396.73;41.30;;;-0.40;99.90;;;;;;6210349;23;20328;-82
2022/12/09 09:39:18;;;;;;;194.90;38.75;;;-0.20;99.90;;;;;;6207754;23;20021;-84
2022/12/09 09:41:56;;;;;;;206.13;37.30;;;-0.40;99.90;;;;;;6179607;23;20020;-82
2022/12/09 09:44:42;;;;;;;219.38;37.25;;;-0.20;99.90;;;;;;6182422;23;20372;-84
2022/12/09 09:47:24;;;;;;;262.63;38.30;;;-0.30;99.90;;;;;;6157369;23;20750;-83
2022/12/09 09:49:59;;;;;;;260.92;39.50;;;-0.30;99.90;;;;;;6209800;23;20008;-82
2022/12/09 09:52:27;;;;;;;250.80;35.90;;;-0.30;99.90;;;;;;6185297;23;20044;-83
2022/12/09 09:54:52;;;;;;;290.15;37.70;;;-0.20;99.90;;;;;;6159918;23;20024;-82
2022/12/09 10:01:05;;;;;;;232.60;37.47;;;-0.20;99.90;;;;;;6225969;23;20016;-79
2022/12/09 10:03:41;;;;;;;249.18;37.20;;;-0.20;99.90;;;;;;6168946;23;20089;-83
2022/12/09 10:06:29;;;;;;;116.38;32.58;;;-0.30;99.90;;;;;;6180104;23;20016;-83
2022/12/09 10:09:11;;;;;;;116.75;33.70;;;-0.30;99.90;;;;;;6183465;23;20112;-82
2022/12/09 10:15:29;;;;;;;123.03;33.60;;;-0.10;99.90;;;;;;6216223;23;20108;-82
2022/12/09 10:18:15;;;;;;;106.88;32.75;;;-0.30;99.90;;;;;;6194473;23;20019;-80
2022/12/09 10:20:42;;;;;;;86.78;29.92;;;-0.10;99.90;;;;;;6161674;23;20017;-80
2022/12/09 10:23:13;;;;;;;91.72;31.13;;;-0.20;99.90;;;;;;6164040;23;20023;-83
2022/12/09 10:25:55;;;;;;;94.40;30.30;;;-0.30;99.90;;;;;;6188908;23;20348;-84
2022/12/09 10:28:28;;;;;;;94.07;31.17;;;-0.40;99.90;;;;;;6163722;23;20317;-81
2022/12/09 10:30:54;;;;;;;106.20;31.05;;;-0.50;99.90;;;;;;6188611;23;20012;-83
2022/12/09 10:33:29;;;;;;;111.85;32.30;;;-0.10;99.90;;;;;;6188637;23;20044;-82
2022/12/09 10:35:55;;;;;;;88.63;30.08;;;-0.10;99.90;;;;;;6187249;23;20020;-81
2022/12/09 10:38:22;;;;;;;126.00;31.23;;;-0.20;99.90;;;;;;6212597;23;20047;-83
2022/12/09 10:44:25;;;;;;;95.38;31.70;;;0.00;99.90;;;;;;6213797;23;20087;-85
2022/12/09 10:47:00;;;;;;;83.60;29.20;;;0.00;99.90;;;;;;6186697;23;20078;-84
2022/12/09 10:49:26;;;;;;;98.57;32.22;;;-0.30;99.90;;;;;;6186871;23;20020;-81
2022/12/09 10:51:54;;;;;;;139.90;34.17;;;-0.20;99.90;;;;;;6182591;23;20080;-81
2022/12/09 10:54:34;;;;;;;124.95;33.45;;;0.10;99.90;;;;;;6156586;23;20028;-84
2022/12/09 10:57:25;;;;;;;88.55;30.67;;;0.10;99.90;;;;;;6159842;23;20031;-82
2022/12/09 11:00:01;;;;;;;112.20;32.97;;;-0.20;99.90;;;;;;6182840;23;20012;-80
2022/12/09 11:02:29;;;;;;;106.88;32.83;;;0.00;99.90;;;;;;6182169;23;20412;-82
2022/12/09 11:04:55;;;;;;;102.75;32.67;;;0.10;99.90;;;;;;6182145;23;20059;-81
2022/12/09 11:07:26;;;;;;;142.63;32.85;;;0.10;99.90;;;;;;6183970;23;20085;-85
2022/12/09 11:09:55;;;;;;;140.45;32.30;;;0.20;99.90;;;;;;6158259;23;20365;-84
2022/12/09 11:13:08;;;;;;;108.97;32.03;;;0.10;99.90;;;;;;6181655;23;20074;-84
2022/12/09 11:15:41;;;;;;;176.98;31.85;;;0.10;99.90;;;;;;6160599;23;20031;-83
2022/12/09 11:18:21;;;;;;;144.25;29.88;;;0.10;99.90;;;;;;6189105;23;20016;-84
2022/12/09 11:21:05;;;;;;;113.22;31.33;;;0.10;99.90;;;;;;6167983;23;20016;-80
2022/12/09 11:23:31;;;;;;;109.50;30.42;;;0.20;99.90;;;;;;6193013;23;20461;-79
2022/12/09 11:26:06;;;;;;;142.35;31.13;;;0.00;99.90;;;;;;6183166;23;20035;-81
2022/12/09 11:28:36;;;;;;;136.75;31.08;;;0.30;99.90;;;;;;6156271;23;20013;-81
2022/12/09 11:31:15;;;;;;;125.82;31.15;;;0.10;99.90;;;;;;6155927;23;20085;-81
2022/12/09 11:33:55;;;;;;;107.53;31.90;;;0.30;99.90;;;;;;6181638;23;20451;-81
2022/12/09 11:36:31;;;;;;;98.82;32.30;;;0.10;99.90;;;;;;6156281;23;20075;-82
2022/12/09 11:39:34;;;;;;;98.97;32.15;;;0.10;99.90;;;;;;6206971;23;20024;-81
2022/12/09 11:42:17;;;;;;;97.72;32.25;;;0.00;99.90;;;;;;6159679;23;20309;-82
2022/12/09 11:44:55;;;;;;;105.65;33.58;;;0.10;99.90;;;;;;6190703;23;20024;-79
2022/12/09 11:47:42;;;;;;;99.72;33.95;;;0.30;99.90;;;;;;6188399;23;20035;-81
2022/12/09 11:50:18;;;;;;;94.22;33.28;;;0.40;99.90;;;;;;6190454;23;20693;-81
2022/12/09 11:52:45;;;;;;;85.07;32.08;;;0.20;99.90;;;;;;6189552;23;20007;-80
2022/12/09 11:55:20;;;;;;;89.97;33.97;;;0.50;99.90;;;;;;6215043;23;20023;-80
2022/12/09 11:58:05;;;;;;;83.95;33.50;;;0.20;99.90;;;;;;6213925;23;20767;-81
2022/12/09 12:00:42;;;;;;;92.35;32.58;;;0.40;99.90;;;;;;6189438;23;20094;-82
2022/12/09 12:03:19;;;;;;;89.38;32.72;;;0.10;99.90;;;;;;6190255;23;20024;-81
2022/12/09 12:05:49;;;;;;;84.70;32.88;;;0.50;99.90;;;;;;6243578;23;20825;-80
2022/12/09 12:08:17;;;;;;;88.50;33.95;;;0.20;99.90;;;;;;6217519;23;20091;-81
2022/12/09 12:10:56;;;;;;;98.00;33.85;;;0.40;99.90;;;;;;6242813;23;20012;-80
2022/12/09 12:13:47;;;;;;;109.80;34.45;;;0.50;99.90;;;;;;6245266;23;20475;-81
2022/12/09 12:16:28;;;;;;;85.35;33.00;;;0.50;99.90;;;;;;6191828;23;20022;-80
2022/12/09 12:19:04;;;;;;;84.22;32.78;;;0.70;99.90;;;;;;6217059;23;20012;-82
2022/12/09 12:21:51;;;;;;;94.18;33.95;;;0.80;99.90;;;;;;6217320;23;20015;-82
2022/12/09 12:24:50;;;;;;;92.05;32.25;;;0.50;99.90;;;;;;6213417;23;20020;-81
2022/12/09 12:27:31;;;;;;;88.10;31.48;;;0.50;99.90;;;;;;6189189;23;20125;-81
2022/12/09 12:30:07;;;;;;;95.22;31.70;;;0.70;99.90;;;;;;6191571;23;20009;-81
2022/12/09 12:32:51;;;;;;;90.43;32.75;;;0.60;99.90;;;;;;6218126;23;20129;-80
2022/12/09 12:35:30;;;;;;;86.53;33.70;;;0.70;99.90;;;;;;6217854;23;20444;-81
2022/12/09 12:38:14;;;;;;;88.13;33.08;;;0.60;99.90;;;;;;6194122;23;20404;-81
2022/12/09 12:41:08;;;;;;;84.90;32.22;;;0.30;99.90;;;;;;6196478;23;20095;-81
2022/12/09 12:46:51;;;;;;;91.22;33.58;;;0.60;99.90;;;;;;6212359;23;20107;-81
2022/12/09 12:49:34;;;;;;;87.75;33.35;;;0.40;99.90;;;;;;6210560;23;20022;-80
2022/12/09 12:52:23;;;;;;;92.10;32.22;;;0.40;99.90;;;;;;6210994;23;20005;-80
2022/12/09 12:55:09;;;;;;;100.05;34.35;;;0.60;99.90;;;;;;6207190;23;20728;-79
2022/12/09 12:57:57;;;;;;;84.47;32.22;;;0.40;99.90;;;;;;6211238;23;20070;-81